Terminal Aerodrome Forecast
Issued by NWS Sterling, VA

Current Version | Previous Version | Graphics & Text | Print | Product List | Glossary On
Versions: 1 2 3 4 5 6 7 8 9 10 11 12 13 14 15 16 17 18 19 20 21 22
000
FTUS41 KLWX 191130
TAFDCA
TAF
KDCA 191130Z 1912/2012 29005KT P6SM BKN060
     FM191500 31009KT P6SM BKN070
     FM191700 30009KT P6SM SCT140
     FM200800 34005KT P6SM FEW200=

USA.gov is the U.S. government's official web portal to all federal, state and local government web resources and services.